createdAt,value
2022-08-23T00:00:34.739Z,0.00
2022-08-23T00:01:34.698Z,0.00
2022-08-23T00:02:34.716Z,0.00
2022-08-23T00:03:34.675Z,0.00
2022-08-23T00:04:35.300Z,0.00
2022-08-23T00:05:34.671Z,0.00
2022-08-23T00:06:34.642Z,0.00
2022-08-23T00:07:38.186Z,0.00
2022-08-23T00:08:34.640Z,0.00
2022-08-23T00:09:34.603Z,0.00
2022-08-23T00:10:34.631Z,0.00
2022-08-23T00:11:34.588Z,0.00
2022-08-23T00:12:34.582Z,0.00
2022-08-23T00:13:47.342Z,0.00
2022-08-23T00:14:34.553Z,0.00
2022-08-23T00:15:34.574Z,0.00
2022-08-23T00:16:34.549Z,0.00
2022-08-23T00:17:35.203Z,0.00
2022-08-23T00:18:34.517Z,0.00
2022-08-23T00:19:34.498Z,0.00
2022-08-23T00:20:34.512Z,0.00
2022-08-23T00:21:34.473Z,0.00
2022-08-23T00:22:34.474Z,0.00
2022-08-23T00:23:34.454Z,0.00
2022-08-23T00:24:37.987Z,0.00
2022-08-23T00:25:34.444Z,0.00
2022-08-23T00:26:34.422Z,0.00
2022-08-23T00:27:34.407Z,0.00
2022-08-23T00:28:34.430Z,0.00
2022-08-23T00:29:34.383Z,0.00
2022-08-23T00:30:34.372Z,0.00
2022-08-23T00:31:34.379Z,0.00
2022-08-23T00:32:34.349Z,0.00
2022-08-23T00:33:34.355Z,0.00
2022-08-23T00:34:34.333Z,0.00
2022-08-23T00:35:34.347Z,0.00
2022-08-23T00:36:34.309Z,0.00
2022-08-23T00:37:34.300Z,0.00
2022-08-23T00:38:35.240Z,0.00
2022-08-23T00:39:34.305Z,0.00
2022-08-23T00:40:34.289Z,0.00
2022-08-23T00:41:34.256Z,0.00
2022-08-23T00:42:34.251Z,0.00
2022-08-23T00:43:34.226Z,0.00
2022-08-23T00:44:34.232Z,0.00
2022-08-23T00:45:34.235Z,0.00
2022-08-23T00:47:45.019Z,0.00
2022-08-23T00:48:44.152Z,0.00
2022-08-23T00:49:44.142Z,0.00
2022-08-23T00:50:44.158Z,0.00
2022-08-23T00:51:52.761Z,0.00
2022-08-23T00:52:44.095Z,0.00
2022-08-23T00:53:44.087Z,0.00
2022-08-23T00:54:44.073Z,0.00
2022-08-23T00:55:44.087Z,0.00
2022-08-23T00:56:44.066Z,0.00
2022-08-23T00:57:44.073Z,0.00
2022-08-23T00:58:44.036Z,0.00
2022-08-23T00:59:44.032Z,0.00
2022-08-23T01:00:44.032Z,0.00
2022-08-23T01:01:44.083Z,0.00
2022-08-23T01:02:43.990Z,0.00
2022-08-23T01:03:43.978Z,0.00
2022-08-23T01:04:43.963Z,0.00
2022-08-23T01:05:43.952Z,0.00
2022-08-23T01:06:43.977Z,0.00
2022-08-23T01:07:43.939Z,0.00
2022-08-23T01:08:43.927Z,0.00
2022-08-23T01:09:43.911Z,0.00
2022-08-23T01:10:43.936Z,0.00
2022-08-23T01:11:43.909Z,0.00
2022-08-23T01:12:43.883Z,0.00
2022-08-23T01:13:43.869Z,0.00
2022-08-23T01:14:43.863Z,0.00
2022-08-23T01:15:43.847Z,0.00
2022-08-23T01:16:43.848Z,0.00
2022-08-23T01:17:43.843Z,0.00
2022-08-23T01:18:43.810Z,0.00
2022-08-23T01:19:43.802Z,0.00
2022-08-23T01:20:43.791Z,0.00
2022-08-23T01:21:43.779Z,0.00
2022-08-23T01:22:43.780Z,0.00
2022-08-23T01:23:43.754Z,0.00
2022-08-23T01:25:07.398Z,0.00
2022-08-23T01:25:43.741Z,0.00
2022-08-23T01:26:43.729Z,0.00
2022-08-23T01:27:43.895Z,0.00
2022-08-23T01:28:43.710Z,0.00
2022-08-23T01:29:43.692Z,0.00
2022-08-23T01:30:43.682Z,0.00
2022-08-23T01:31:43.699Z,0.00
2022-08-23T01:32:43.673Z,0.00
2022-08-23T01:33:43.653Z,0.00
2022-08-23T01:34:44.653Z,0.00
2022-08-23T01:35:43.626Z,0.00
2022-08-23T01:36:43.648Z,0.00
2022-08-23T01:37:43.620Z,0.00
2022-08-23T01:38:43.599Z,0.00
2022-08-23T01:39:43.620Z,0.00
2022-08-23T01:40:43.577Z,0.00
2022-08-23T01:41:43.594Z,0.00
2022-08-23T01:42:43.580Z,0.00
2022-08-23T01:43:43.535Z,0.00
2022-08-23T01:44:43.537Z,0.00
2022-08-23T01:45:43.549Z,0.00
2022-08-23T01:46:43.523Z,0.00
2022-08-23T01:47:43.496Z,0.00
2022-08-23T01:48:43.499Z,0.00
2022-08-23T01:49:43.484Z,0.00
2022-08-23T01:50:43.461Z,0.00
2022-08-23T01:51:43.505Z,0.00
2022-08-23T01:52:46.744Z,0.00
2022-08-23T01:53:43.460Z,0.00
2022-08-23T01:54:43.440Z,0.00
2022-08-23T01:55:43.411Z,0.00
2022-08-23T01:56:43.420Z,0.00
2022-08-23T01:57:43.393Z,0.00
2022-08-23T01:58:43.379Z,0.00
2022-08-23T01:59:43.361Z,0.00
2022-08-23T02:00:43.362Z,0.00
2022-08-23T02:01:44.246Z,0.00
2022-08-23T02:02:43.362Z,0.00
2022-08-23T02:03:43.318Z,0.00
2022-08-23T02:04:43.337Z,0.00
2022-08-23T02:05:43.373Z,0.00
2022-08-23T02:06:43.287Z,0.00
2022-08-23T02:07:43.303Z,0.00
2022-08-23T02:08:43.273Z,0.00
2022-08-23T02:09:43.264Z,0.00
2022-08-23T02:10:43.244Z,0.00
2022-08-23T02:11:43.237Z,0.00
2022-08-23T02:12:43.232Z,0.00
2022-08-23T02:13:43.261Z,0.00
2022-08-23T02:14:43.202Z,0.00
2022-08-23T02:15:43.204Z,0.00
2022-08-23T02:16:43.180Z,0.00
2022-08-23T02:17:43.177Z,0.00
2022-08-23T02:18:43.183Z,0.00
2022-08-23T02:19:43.151Z,0.00
2022-08-23T02:20:43.139Z,0.00
2022-08-23T02:21:43.124Z,0.00
2022-08-23T02:22:43.119Z,0.00
2022-08-23T02:23:43.126Z,0.00
2022-08-23T02:24:43.091Z,0.00
2022-08-23T02:25:43.076Z,0.00
2022-08-23T02:26:46.324Z,0.00
2022-08-23T02:27:44.096Z,0.00
2022-08-23T02:28:43.235Z,0.00
2022-08-23T02:29:44.020Z,0.00
2022-08-23T02:30:43.021Z,0.00
2022-08-23T02:31:43.016Z,0.00
2022-08-23T02:32:43.005Z,0.00
2022-08-23T02:33:42.991Z,0.00
2022-08-23T02:34:42.992Z,0.00
2022-08-23T02:35:42.966Z,0.00
2022-08-23T02:36:42.956Z,0.00
2022-08-23T02:37:42.948Z,0.00
2022-08-23T02:38:42.949Z,0.00
2022-08-23T02:39:43.057Z,0.00
2022-08-23T02:40:42.911Z,0.00
2022-08-23T02:41:42.914Z,0.00
2022-08-23T02:42:42.888Z,0.00
2022-08-23T02:43:42.897Z,0.00
2022-08-23T02:44:42.892Z,0.00
2022-08-23T02:45:42.874Z,0.00
2022-08-23T02:46:42.844Z,0.00
2022-08-23T02:48:51.888Z,0.00
2022-08-23T02:49:52.902Z,0.00
2022-08-23T02:50:52.857Z,0.00
2022-08-23T02:51:52.849Z,0.00
2022-08-23T02:52:52.834Z,0.00
2022-08-23T02:53:52.825Z,0.00
2022-08-23T02:54:53.228Z,0.00
2022-08-23T02:55:52.819Z,0.00
2022-08-23T02:56:52.793Z,0.00
2022-08-23T02:57:52.785Z,0.00
2022-08-23T02:58:54.306Z,0.00
2022-08-23T02:59:52.785Z,0.00
2022-08-23T03:00:52.753Z,0.00
2022-08-23T03:01:52.822Z,0.00
2022-08-23T03:02:52.740Z,0.00
2022-08-23T03:03:52.722Z,0.00
2022-08-23T03:04:52.739Z,0.00
2022-08-23T03:05:52.706Z,0.00
2022-08-23T03:06:52.691Z,0.00
2022-08-23T03:07:52.685Z,0.00
2022-08-23T03:08:52.682Z,0.00
2022-08-23T03:09:52.683Z,0.00
2022-08-23T03:10:52.645Z,0.00
2022-08-23T03:11:52.630Z,0.00
2022-08-23T03:12:52.619Z,0.00
2022-08-23T03:13:52.609Z,0.00
2022-08-23T03:14:52.779Z,0.00
2022-08-23T03:15:52.598Z,0.00
2022-08-23T03:16:52.583Z,0.00
2022-08-23T03:17:52.572Z,0.00
2022-08-23T03:18:52.561Z,0.00
2022-08-23T03:19:52.580Z,0.00
2022-08-23T03:20:52.556Z,0.00
2022-08-23T03:21:52.533Z,0.00
2022-08-23T03:22:54.662Z,0.00
2022-08-23T03:23:52.508Z,0.00
2022-08-23T03:24:52.510Z,0.00
2022-08-23T03:25:52.517Z,0.00
2022-08-23T03:26:52.519Z,0.00
2022-08-23T03:27:52.470Z,0.00
2022-08-23T03:28:52.458Z,0.00
2022-08-23T03:29:52.443Z,0.00
2022-08-23T03:30:52.449Z,0.00
2022-08-23T03:31:53.823Z,0.00
2022-08-23T03:32:52.404Z,0.00
2022-08-23T03:33:52.393Z,0.00
2022-08-23T03:34:52.415Z,0.00
2022-08-23T03:35:52.374Z,0.00
2022-08-23T03:36:52.366Z,0.00
2022-08-23T03:37:55.130Z,0.00
2022-08-23T03:38:52.339Z,0.00
2022-08-23T03:39:52.411Z,0.00
2022-08-23T03:40:52.321Z,0.00
2022-08-23T03:41:52.314Z,0.00
2022-08-23T03:42:52.303Z,0.00
2022-08-23T03:43:52.287Z,0.00
2022-08-23T03:44:56.928Z,0.00
2022-08-23T03:45:52.285Z,0.00
2022-08-23T03:46:52.265Z,0.00
2022-08-23T03:47:52.240Z,0.00
2022-08-23T03:48:52.785Z,0.00
2022-08-23T03:49:52.233Z,0.00
2022-08-23T03:50:54.560Z,0.00
2022-08-23T03:51:52.206Z,4.00
2022-08-23T03:52:52.188Z,4.00
2022-08-23T03:53:52.173Z,0.00
2022-08-23T03:54:52.194Z,4.00
2022-08-23T03:55:52.165Z,4.00
2022-08-23T03:56:52.157Z,8.00
2022-08-23T03:57:52.165Z,4.00
2022-08-23T03:58:52.121Z,4.00
2022-08-23T03:59:52.114Z,8.00
2022-08-23T04:00:52.096Z,8.00
2022-08-23T04:01:52.128Z,12.00
2022-08-23T04:02:52.112Z,12.00
2022-08-23T04:03:52.073Z,12.00
2022-08-23T04:04:52.057Z,16.00
2022-08-23T04:05:52.049Z,20.00
2022-08-23T04:06:52.041Z,24.00
2022-08-23T04:07:52.023Z,28.00
2022-08-23T04:08:52.017Z,32.00
2022-08-23T04:09:54.977Z,36.00
2022-08-23T04:10:52.004Z,44.00
2022-08-23T04:11:51.983Z,52.00
2022-08-23T04:12:51.967Z,56.00
2022-08-23T04:13:51.982Z,68.00
2022-08-23T04:14:51.943Z,76.00
2022-08-23T04:15:51.937Z,88.00
2022-08-23T04:16:51.937Z,100.00
2022-08-23T04:17:51.924Z,112.00
2022-08-23T04:18:51.927Z,124.00
2022-08-23T04:19:51.948Z,140.00
2022-08-23T04:20:51.877Z,156.00
2022-08-23T04:21:51.868Z,168.00
2022-08-23T04:22:51.857Z,188.00
2022-08-23T04:23:51.843Z,208.00
2022-08-23T04:24:51.866Z,224.00
2022-08-23T04:25:51.836Z,240.00
2022-08-23T04:26:51.822Z,264.00
2022-08-23T04:27:51.816Z,280.00
2022-08-23T04:28:51.803Z,304.00
2022-08-23T04:29:51.805Z,328.00
2022-08-23T04:30:51.773Z,352.00
2022-08-23T04:31:51.784Z,372.00
2022-08-23T04:32:51.751Z,400.00
2022-08-23T04:33:52.635Z,424.00
2022-08-23T04:34:51.731Z,452.00
2022-08-23T04:35:51.716Z,476.00
2022-08-23T04:36:55.115Z,508.00
2022-08-23T04:37:51.700Z,536.00
2022-08-23T04:38:51.687Z,564.00
2022-08-23T04:39:51.844Z,592.00
2022-08-23T04:40:51.659Z,624.00
2022-08-23T04:41:51.652Z,656.00
2022-08-23T04:42:51.642Z,684.00
2022-08-23T04:43:51.632Z,720.00
2022-08-23T04:44:51.645Z,752.00
2022-08-23T04:45:51.613Z,784.00
2022-08-23T04:46:51.610Z,824.00
2022-08-23T04:47:51.580Z,864.00
2022-08-23T04:50:00.579Z,948.00
2022-08-23T04:51:01.539Z,992.00
2022-08-23T04:53:00.536Z,1080.00
2022-08-23T04:54:01.530Z,1124.00
2022-08-23T04:55:01.482Z,1172.00
2022-08-23T04:56:01.476Z,1220.00
2022-08-23T04:57:01.462Z,1268.00
2022-08-23T04:58:01.736Z,1316.00
2022-08-23T04:59:01.441Z,1364.00
2022-08-23T05:00:01.437Z,1416.00
2022-08-23T05:01:01.466Z,1468.00
2022-08-23T05:02:01.412Z,1520.00
2022-08-23T05:03:01.427Z,1572.00
2022-08-23T05:04:01.397Z,1628.00
2022-08-23T05:05:01.374Z,1688.00
2022-08-23T05:06:01.361Z,1748.00
2022-08-23T05:07:01.351Z,1808.00
2022-08-23T05:08:01.628Z,1868.00
2022-08-23T05:09:01.337Z,1936.00
2022-08-23T05:10:01.323Z,2004.00
2022-08-23T05:11:01.323Z,2076.00
2022-08-23T05:12:01.297Z,2144.00
2022-08-23T05:13:01.304Z,2204.00
2022-08-23T05:14:01.273Z,2264.00
2022-08-23T05:15:01.266Z,2336.00
2022-08-23T05:16:01.252Z,2404.00
2022-08-23T05:17:01.249Z,2468.00
2022-08-23T05:18:01.449Z,2528.00
2022-08-23T05:19:01.221Z,2592.00
2022-08-23T05:20:01.218Z,2648.00
2022-08-23T05:21:01.192Z,2708.00
2022-08-23T05:22:01.185Z,2768.00
2022-08-23T05:23:01.211Z,2824.00
2022-08-23T05:24:02.179Z,2884.00
2022-08-23T05:25:01.146Z,2944.00
2022-08-23T05:26:01.143Z,3000.00
2022-08-23T05:27:01.126Z,3064.00
2022-08-23T05:28:01.356Z,3124.00
2022-08-23T05:29:01.123Z,3188.00
2022-08-23T05:30:01.096Z,3292.00
2022-08-23T05:31:01.086Z,3712.00
2022-08-23T05:32:01.079Z,4272.00
2022-08-23T05:33:01.072Z,4700.00
2022-08-23T05:34:01.059Z,4840.00
2022-08-23T05:35:01.056Z,4932.00
2022-08-23T05:36:02.019Z,5012.00
2022-08-23T05:37:01.045Z,5104.00
2022-08-23T05:38:01.220Z,5208.00
2022-08-23T05:39:00.993Z,5296.00
2022-08-23T05:40:01.051Z,5348.00
2022-08-23T05:41:00.969Z,5472.00
2022-08-23T05:42:00.995Z,5520.00
2022-08-23T05:43:00.957Z,5596.00
2022-08-23T05:44:01.038Z,5680.00
2022-08-23T05:45:00.942Z,5800.00
2022-08-23T05:46:01.583Z,5928.00
2022-08-23T05:47:00.930Z,6040.00
2022-08-23T05:48:01.137Z,6132.00
2022-08-23T05:49:00.886Z,6204.00
2022-08-23T05:50:00.879Z,6272.00
2022-08-23T05:51:00.856Z,6360.00
2022-08-23T05:52:00.935Z,6372.00
2022-08-23T05:53:00.842Z,6472.00
2022-08-23T05:54:00.870Z,6652.00
2022-08-23T05:55:00.831Z,6748.00
2022-08-23T05:56:00.807Z,6760.00
2022-08-23T05:57:01.348Z,6716.00
2022-08-23T05:58:01.034Z,6676.00
2022-08-23T05:59:00.782Z,6296.00
2022-08-23T06:00:00.768Z,6104.00
2022-08-23T06:01:00.778Z,6984.00
2022-08-23T06:02:00.750Z,7124.00
2022-08-23T06:03:00.781Z,7156.00
2022-08-23T06:04:00.748Z,7196.00
2022-08-23T06:05:00.702Z,7248.00
2022-08-23T06:06:00.697Z,7364.00
2022-08-23T06:07:00.804Z,7424.00
2022-08-23T06:08:00.967Z,7520.00
2022-08-23T06:09:00.708Z,7680.00
2022-08-23T06:10:00.654Z,6780.00
2022-08-23T06:11:00.686Z,7860.00
2022-08-23T06:12:00.627Z,7848.00
2022-08-23T06:13:00.735Z,7660.00
2022-08-23T06:14:00.657Z,7680.00
2022-08-23T06:15:00.842Z,7880.00
2022-08-23T06:16:00.591Z,8316.00
2022-08-23T06:17:00.584Z,7820.00
2022-08-23T06:18:00.790Z,6880.00
2022-08-23T06:19:00.554Z,8064.00
2022-08-23T06:20:00.654Z,7184.00
2022-08-23T06:21:00.532Z,6476.00
2022-08-23T06:22:00.526Z,6536.00
2022-08-23T06:23:00.559Z,6800.00
2022-08-23T06:24:00.524Z,6784.00
2022-08-23T06:25:00.513Z,6904.00
2022-08-23T06:26:00.504Z,7044.00
2022-08-23T06:27:00.467Z,7456.00
2022-08-23T06:28:00.593Z,7340.00
2022-08-23T06:29:00.511Z,7472.00
2022-08-23T06:30:00.502Z,9260.00
2022-08-23T06:31:00.478Z,9408.00
2022-08-23T06:32:00.443Z,8052.00
2022-08-23T06:33:00.408Z,7316.00
2022-08-23T06:34:00.450Z,7464.00
2022-08-23T06:35:18.118Z,7360.00
2022-08-23T06:36:00.374Z,7584.00
2022-08-23T06:37:00.360Z,9180.00
2022-08-23T06:38:00.546Z,9144.00
2022-08-23T06:39:00.349Z,9440.00
2022-08-23T06:40:00.397Z,8028.00
2022-08-23T06:41:00.434Z,10300.00
2022-08-23T06:42:00.363Z,10212.00
2022-08-23T06:43:00.380Z,10196.00
2022-08-23T06:44:00.294Z,10164.00
2022-08-23T06:45:02.113Z,9536.00
2022-08-23T06:46:00.342Z,7300.00
2022-08-23T06:47:11.525Z,7328.00
2022-08-23T06:50:16.526Z,10452.00
2022-08-23T06:51:12.547Z,8432.00
2022-08-23T06:52:10.545Z,9076.00
2022-08-23T06:55:13.731Z,10956.00
2022-08-23T06:58:16.841Z,11812.00
2022-08-23T06:59:17.007Z,11912.00
2022-08-23T07:06:15.125Z,12228.00
2022-08-23T07:06:27.624Z,10520.00
2022-08-23T07:08:42.044Z,10644.00
2022-08-23T07:08:49.494Z,12672.00
2022-08-23T07:09:31.514Z,11488.00
2022-08-23T07:09:31.516Z,12236.00
2022-08-23T07:09:49.693Z,11976.00
2022-08-23T07:10:09.305Z,12696.00
2022-08-23T07:10:09.484Z,12784.00
2022-08-23T07:11:09.481Z,12872.00
2022-08-23T07:12:09.456Z,12848.00
2022-08-23T07:13:09.445Z,12804.00
2022-08-23T07:14:09.446Z,12848.00
2022-08-23T07:15:09.397Z,12456.00
2022-08-23T07:16:09.446Z,12960.00
2022-08-23T07:17:09.374Z,9232.00
2022-08-23T07:18:10.981Z,9300.00
2022-08-23T07:19:09.437Z,9496.00
2022-08-23T07:20:09.388Z,9752.00
2022-08-23T07:21:09.342Z,10076.00
2022-08-23T07:22:09.326Z,14348.00
2022-08-23T07:23:09.346Z,13604.00
2022-08-23T07:24:09.348Z,12388.00
2022-08-23T07:25:09.310Z,13696.00
2022-08-23T07:26:09.300Z,14760.00
2022-08-23T07:27:09.296Z,14428.00
2022-08-23T07:28:11.727Z,14104.00
2022-08-23T07:29:09.283Z,14848.00
2022-08-23T07:30:09.302Z,14732.00
2022-08-23T07:31:14.402Z,10904.00
2022-08-23T07:32:09.292Z,10828.00
2022-08-23T07:33:09.228Z,10844.00
2022-08-23T07:34:09.241Z,10972.00
2022-08-23T07:35:09.192Z,10976.00
2022-08-23T07:36:09.183Z,11016.00
2022-08-23T07:37:11.582Z,15160.00
2022-08-23T07:38:09.157Z,15520.00
2022-08-23T07:39:09.168Z,12172.00
2022-08-23T07:40:09.192Z,15488.00
2022-08-23T07:41:09.123Z,15964.00
2022-08-23T07:42:24.098Z,15948.00
2022-08-23T07:43:09.176Z,15760.00
2022-08-23T07:44:09.268Z,15592.00
2022-08-23T07:45:10.021Z,11544.00
2022-08-23T07:46:09.152Z,16288.00
2022-08-23T07:47:09.059Z,15748.00
2022-08-23T07:48:09.041Z,12204.00
2022-08-23T07:49:09.045Z,15612.00
2022-08-23T07:50:09.019Z,15744.00
2022-08-23T07:51:09.045Z,15740.00
2022-08-23T07:52:09.001Z,15936.00
2022-08-23T07:53:08.997Z,16576.00
2022-08-23T07:54:08.985Z,16704.00
2022-08-23T07:55:08.972Z,16704.00
2022-08-23T07:56:09.002Z,16576.00
2022-08-23T07:57:08.948Z,16544.00
2022-08-23T07:58:09.682Z,16256.00
2022-08-23T07:59:08.952Z,16384.00
2022-08-23T08:00:08.933Z,16192.00
2022-08-23T08:01:08.929Z,14780.00
2022-08-23T08:02:09.860Z,16096.00
2022-08-23T08:03:08.948Z,15132.00
2022-08-23T08:04:08.875Z,11032.00
2022-08-23T08:05:08.931Z,11008.00
2022-08-23T08:06:08.924Z,11092.00
2022-08-23T08:07:19.414Z,11212.00
2022-08-23T08:08:08.911Z,11384.00
2022-08-23T08:09:08.959Z,11672.00
2022-08-23T08:11:47.421Z,12232.00
2022-08-23T08:12:17.656Z,12080.00
2022-08-23T08:15:10.081Z,12404.00
2022-08-23T08:24:32.984Z,15268.00
2022-08-23T08:30:39.736Z,13412.00
2022-08-23T08:36:42.466Z,16392.00
2022-08-23T08:36:49.081Z,19104.00
2022-08-23T08:39:03.011Z,19008.00
2022-08-23T08:39:29.035Z,18976.00
2022-08-23T08:40:28.585Z,15436.00
2022-08-23T08:40:38.635Z,18688.00
2022-08-23T08:40:40.657Z,18592.00
2022-08-23T08:41:28.545Z,17856.00
2022-08-23T08:42:28.529Z,18080.00
2022-08-23T08:43:28.603Z,15868.00
2022-08-23T08:44:28.540Z,14212.00
2022-08-23T08:45:28.555Z,15808.00
2022-08-23T08:46:28.639Z,14056.00
2022-08-23T08:47:28.476Z,10152.00
2022-08-23T08:48:28.469Z,9068.00
2022-08-23T08:49:28.500Z,8588.00
2022-08-23T08:50:28.451Z,8052.00
2022-08-23T08:51:28.503Z,7804.00
2022-08-23T08:52:29.755Z,7980.00
2022-08-23T08:53:28.455Z,12244.00
2022-08-23T08:54:28.410Z,9000.00
2022-08-23T08:55:28.391Z,7976.00
2022-08-23T08:56:32.128Z,8184.00
2022-08-23T08:57:28.464Z,8756.00
2022-08-23T08:58:28.396Z,9628.00
2022-08-23T08:59:28.348Z,16032.00
2022-08-23T09:00:28.365Z,16544.00
2022-08-23T09:01:28.484Z,16960.00
2022-08-23T09:02:32.484Z,17216.00
2022-08-23T09:03:28.373Z,17600.00
2022-08-23T09:04:28.289Z,17792.00
2022-08-23T09:05:28.307Z,17824.00
2022-08-23T09:06:28.274Z,17888.00
2022-08-23T09:07:31.293Z,17920.00
2022-08-23T09:08:28.261Z,17184.00
2022-08-23T09:09:28.268Z,18112.00
2022-08-23T09:10:28.265Z,18080.00
2022-08-23T09:11:28.216Z,18176.00
2022-08-23T09:12:28.202Z,17888.00
2022-08-23T09:13:28.194Z,18048.00
2022-08-23T09:14:28.178Z,18432.00
2022-08-23T09:15:28.183Z,18784.00
2022-08-23T09:16:28.859Z,19232.00
2022-08-23T09:17:28.153Z,19488.00
2022-08-23T09:18:28.226Z,19648.00
2022-08-23T09:19:28.129Z,19840.00
2022-08-23T09:20:32.396Z,17056.00
2022-08-23T09:21:28.424Z,18304.00
2022-08-23T09:22:28.095Z,14884.00
2022-08-23T09:23:28.109Z,15496.00
2022-08-23T09:24:28.107Z,15604.00
2022-08-23T09:25:28.112Z,16540.00
2022-08-23T09:26:28.049Z,16296.00
2022-08-23T09:27:28.038Z,21216.00
2022-08-23T09:28:28.351Z,19968.00
2022-08-23T09:29:28.043Z,17760.00
2022-08-23T09:30:28.059Z,21024.00
2022-08-23T09:31:28.036Z,18848.00
2022-08-23T09:32:27.998Z,18976.00
2022-08-23T09:33:27.983Z,20960.00
2022-08-23T09:34:27.999Z,21184.00
2022-08-23T09:35:27.951Z,21184.00
2022-08-23T09:36:27.938Z,21472.00
2022-08-23T09:37:27.926Z,21536.00
2022-08-23T09:38:27.981Z,21600.00
2022-08-23T09:39:30.480Z,21472.00
2022-08-23T09:40:28.124Z,20448.00
2022-08-23T09:41:27.897Z,22848.00
2022-08-23T09:42:27.869Z,23328.00
2022-08-23T09:43:27.880Z,20672.00
2022-08-23T09:44:27.933Z,19968.00
2022-08-23T09:45:29.731Z,20128.00
2022-08-23T09:46:27.899Z,22880.00
2022-08-23T09:47:27.821Z,20480.00
2022-08-23T09:48:31.097Z,20384.00
2022-08-23T09:49:27.827Z,20096.00
2022-08-23T09:50:27.797Z,19936.00
2022-08-23T09:51:27.782Z,19552.00
2022-08-23T09:52:27.830Z,19232.00
2022-08-23T09:53:27.779Z,18848.00
2022-08-23T09:54:27.785Z,18496.00
2022-08-23T09:55:27.808Z,18592.00
2022-08-23T09:56:27.726Z,18912.00
2022-08-23T09:57:27.958Z,21760.00
2022-08-23T09:58:27.759Z,23872.00
2022-08-23T09:59:27.757Z,18848.00
2022-08-23T10:00:27.705Z,18720.00
2022-08-23T10:01:27.771Z,18912.00
2022-08-23T10:02:27.660Z,19072.00
2022-08-23T10:03:27.703Z,18592.00
2022-08-23T10:04:27.747Z,23808.00
2022-08-23T10:05:27.880Z,17136.00
2022-08-23T10:06:27.623Z,22944.00
2022-08-23T10:07:27.613Z,22624.00
2022-08-23T10:08:27.625Z,16732.00
2022-08-23T10:09:27.606Z,21344.00
2022-08-23T10:10:27.572Z,16560.00
2022-08-23T10:11:27.636Z,20992.00
2022-08-23T10:12:27.567Z,16652.00
2022-08-23T10:13:27.577Z,17772.00
2022-08-23T10:14:28.776Z,19840.00
2022-08-23T10:15:27.522Z,20064.00
2022-08-23T10:16:27.774Z,19456.00
2022-08-23T10:17:27.603Z,19328.00
2022-08-23T10:18:27.511Z,18848.00
2022-08-23T10:19:27.479Z,18752.00
2022-08-23T10:20:27.694Z,18688.00
2022-08-23T10:22:36.745Z,18304.00
2022-08-23T10:23:37.848Z,18112.00
2022-08-23T10:24:37.734Z,18176.00
2022-08-23T10:25:37.699Z,18272.00
2022-08-23T10:26:37.706Z,18336.00
2022-08-23T10:27:37.702Z,18176.00
2022-08-23T10:28:39.280Z,18400.00
2022-08-23T10:29:37.703Z,18560.00
2022-08-23T10:30:37.670Z,18528.00
2022-08-23T10:31:37.732Z,18336.00
2022-08-23T10:32:37.624Z,18080.00
2022-08-23T10:33:37.611Z,17952.00
2022-08-23T10:34:37.615Z,17984.00
2022-08-23T10:35:37.600Z,17888.00
2022-08-23T10:36:37.671Z,17856.00
2022-08-23T10:37:37.577Z,17824.00
2022-08-23T10:38:37.663Z,17824.00
2022-08-23T10:39:37.541Z,17920.00
2022-08-23T10:40:37.585Z,17856.00
2022-08-23T10:41:37.521Z,17952.00
2022-08-23T10:42:37.574Z,17952.00
2022-08-23T10:43:37.721Z,17984.00
2022-08-23T10:44:37.509Z,18016.00
2022-08-23T10:45:37.491Z,17164.00
2022-08-23T10:46:37.564Z,17952.00
2022-08-23T10:47:37.501Z,18016.00
2022-08-23T10:48:37.477Z,18112.00
2022-08-23T10:49:37.446Z,18176.00
2022-08-23T10:50:37.431Z,18176.00
2022-08-23T10:51:37.420Z,18080.00
2022-08-23T10:52:37.404Z,17536.00
2022-08-23T10:53:37.488Z,17504.00
2022-08-23T10:54:37.391Z,17920.00
2022-08-23T10:55:37.416Z,18208.00
2022-08-23T10:56:40.437Z,18048.00
2022-08-23T10:57:37.359Z,18176.00
2022-08-23T10:58:37.427Z,17952.00
2022-08-23T10:59:37.359Z,17792.00
2022-08-23T11:00:37.352Z,18112.00
2022-08-23T11:01:37.368Z,18368.00
2022-08-23T11:02:37.959Z,18432.00
2022-08-23T11:03:37.298Z,18432.00
2022-08-23T11:04:37.307Z,18528.00
2022-08-23T11:05:37.306Z,18496.00
2022-08-23T11:06:37.413Z,18496.00
2022-08-23T11:07:38.938Z,17728.00
2022-08-23T11:08:37.242Z,17696.00
2022-08-23T11:09:37.895Z,16440.00
2022-08-23T11:10:37.246Z,16796.00
2022-08-23T11:11:37.204Z,16848.00
2022-08-23T11:12:37.203Z,16496.00
2022-08-23T11:13:37.223Z,17184.00
2022-08-23T11:14:37.199Z,18528.00
2022-08-23T11:15:37.238Z,19264.00
2022-08-23T11:16:37.172Z,19264.00
2022-08-23T11:17:37.152Z,19360.00
2022-08-23T11:18:37.158Z,19488.00
2022-08-23T11:19:37.144Z,19328.00
2022-08-23T11:20:37.114Z,19488.00
2022-08-23T11:21:37.103Z,19584.00
2022-08-23T11:22:37.098Z,16716.00
2022-08-23T11:23:37.105Z,19264.00
2022-08-23T11:24:37.097Z,19200.00
2022-08-23T11:25:37.073Z,18176.00
2022-08-23T11:26:37.047Z,16772.00
2022-08-23T11:27:37.048Z,17568.00
2022-08-23T11:28:37.023Z,17728.00
2022-08-23T11:29:37.014Z,18304.00
2022-08-23T11:30:37.107Z,18176.00
2022-08-23T11:31:37.905Z,18528.00
2022-08-23T11:32:36.981Z,18400.00
2022-08-23T11:33:36.978Z,17792.00
2022-08-23T11:34:36.987Z,17664.00
2022-08-23T11:35:37.096Z,17344.00
2022-08-23T11:36:36.955Z,17120.00
2022-08-23T11:37:36.950Z,17088.00
2022-08-23T11:38:36.920Z,17760.00
2022-08-23T11:39:36.932Z,17760.00
2022-08-23T11:40:36.901Z,17344.00
2022-08-23T11:41:36.903Z,17408.00
2022-08-23T11:42:39.408Z,17696.00
2022-08-23T11:43:37.416Z,17760.00
2022-08-23T11:44:36.853Z,17376.00
2022-08-23T11:45:36.876Z,17568.00
2022-08-23T11:46:36.848Z,17408.00
2022-08-23T11:47:36.822Z,17984.00
2022-08-23T11:48:36.809Z,17952.00
2022-08-23T11:49:36.834Z,18208.00
2022-08-23T11:50:36.832Z,16476.00
2022-08-23T11:51:36.902Z,17344.00
2022-08-23T11:52:36.775Z,18560.00
2022-08-23T11:53:36.767Z,18880.00
2022-08-23T11:54:36.749Z,19168.00
2022-08-23T11:55:36.764Z,18528.00
2022-08-23T11:56:36.926Z,18688.00
2022-08-23T11:57:36.713Z,18848.00
2022-08-23T11:58:36.708Z,18496.00
2022-08-23T11:59:41.423Z,19040.00
2022-08-23T12:00:36.705Z,18976.00
2022-08-23T12:01:36.710Z,18880.00
2022-08-23T12:02:36.893Z,17408.00
2022-08-23T12:03:36.853Z,18144.00
2022-08-23T12:04:36.647Z,17760.00
2022-08-23T12:05:37.421Z,17440.00
2022-08-23T12:06:39.134Z,17216.00
2022-08-23T12:07:36.679Z,17024.00
2022-08-23T12:08:36.607Z,16800.00
2022-08-23T12:09:36.597Z,16768.00
2022-08-23T12:10:36.584Z,16608.00
2022-08-23T12:11:36.600Z,16512.00
2022-08-23T12:12:40.877Z,16104.00
2022-08-23T12:13:36.550Z,16320.00
2022-08-23T12:14:36.541Z,16352.00
2022-08-23T12:15:36.605Z,16320.00
2022-08-23T12:16:36.527Z,16024.00
2022-08-23T12:17:36.789Z,15600.00
2022-08-23T12:18:36.505Z,14912.00
2022-08-23T12:19:40.177Z,13360.00
2022-08-23T12:20:36.474Z,12132.00
2022-08-23T12:21:36.465Z,12692.00
2022-08-23T12:23:47.969Z,12596.00
2022-08-23T12:24:47.035Z,13740.00
2022-08-23T12:25:46.400Z,13460.00
2022-08-23T12:26:46.380Z,16288.00
2022-08-23T12:27:46.380Z,16736.00
2022-08-23T12:28:46.428Z,16896.00
2022-08-23T12:29:46.349Z,17088.00
2022-08-23T12:30:46.410Z,17056.00
2022-08-23T12:31:46.383Z,17056.00
2022-08-23T12:32:46.311Z,17152.00
2022-08-23T12:33:46.356Z,17216.00
2022-08-23T12:34:47.259Z,16992.00
2022-08-23T12:35:46.281Z,16768.00
2022-08-23T12:36:46.274Z,16416.00
2022-08-23T12:37:46.271Z,15476.00
2022-08-23T12:38:46.282Z,14432.00
2022-08-23T12:39:46.345Z,13608.00
2022-08-23T12:40:46.257Z,14200.00
2022-08-23T12:41:46.228Z,14064.00
2022-08-23T12:42:46.217Z,14128.00
2022-08-23T12:43:46.303Z,14428.00
2022-08-23T12:44:46.197Z,14620.00
2022-08-23T12:45:46.179Z,14904.00
2022-08-23T12:46:46.283Z,15372.00
2022-08-23T12:47:46.161Z,15704.00
2022-08-23T12:48:46.185Z,16056.00
2022-08-23T12:49:46.146Z,16576.00
2022-08-23T12:50:46.124Z,16448.00
2022-08-23T12:51:46.118Z,16864.00
2022-08-23T12:52:46.108Z,16768.00
2022-08-23T12:53:46.132Z,16832.00